sensor_id;sensor_type;location;lat;lon;timestamp;temperature;humidity
72126;SHT31;59999;51.676;22.650;2023-07-13T00:00:05;18.52;90.48
72126;SHT31;59999;51.676;22.650;2023-07-13T00:02:55;18.49;90.72
72126;SHT31;59999;51.676;22.650;2023-07-13T00:05:22;18.45;90.74
72126;SHT31;59999;51.676;22.650;2023-07-13T00:07:49;18.44;90.89
72126;SHT31;59999;51.676;22.650;2023-07-13T00:10:17;18.38;90.82
72126;SHT31;59999;51.676;22.650;2023-07-13T00:12:43;18.35;90.88
72126;SHT31;59999;51.676;22.650;2023-07-13T00:15:18;18.31;90.94
72126;SHT31;59999;51.676;22.650;2023-07-13T00:17:57;18.27;91.08
72126;SHT31;59999;51.676;22.650;2023-07-13T00:20:24;18.24;91.21
72126;SHT31;59999;51.676;22.650;2023-07-13T00:22:51;18.21;91.31
72126;SHT31;59999;51.676;22.650;2023-07-13T00:25:22;18.17;91.40
72126;SHT31;59999;51.676;22.650;2023-07-13T00:27:49;18.14;91.49
72126;SHT31;59999;51.676;22.650;2023-07-13T00:30:16;18.08;91.59
72126;SHT31;59999;51.676;22.650;2023-07-13T00:32:42;18.03;91.63
72126;SHT31;59999;51.676;22.650;2023-07-13T00:35:08;17.98;91.67
72126;SHT31;59999;51.676;22.650;2023-07-13T00:37:34;17.96;91.74
72126;SHT31;59999;51.676;22.650;2023-07-13T00:40:03;17.93;92.05
72126;SHT31;59999;51.676;22.650;2023-07-13T00:42:29;17.91;92.24
72126;SHT31;59999;51.676;22.650;2023-07-13T00:47:28;17.84;92.22
72126;SHT31;59999;51.676;22.650;2023-07-13T00:49:54;17.82;92.28
72126;SHT31;59999;51.676;22.650;2023-07-13T00:52:20;17.79;92.31
72126;SHT31;59999;51.676;22.650;2023-07-13T00:54:47;17.76;92.40
72126;SHT31;59999;51.676;22.650;2023-07-13T00:57:16;17.73;92.46
72126;SHT31;59999;51.676;22.650;2023-07-13T00:59:47;17.72;92.50
72126;SHT31;59999;51.676;22.650;2023-07-13T01:02:14;17.69;92.51
72126;SHT31;59999;51.676;22.650;2023-07-13T01:04:42;17.66;92.57
72126;SHT31;59999;51.676;22.650;2023-07-13T01:07:11;17.65;92.57
72126;SHT31;59999;51.676;22.650;2023-07-13T01:09:37;17.65;92.75
72126;SHT31;59999;51.676;22.650;2023-07-13T01:12:03;17.62;92.83
72126;SHT31;59999;51.676;22.650;2023-07-13T01:14:30;17.59;92.85
72126;SHT31;59999;51.676;22.650;2023-07-13T01:16:56;17.59;92.78
72126;SHT31;59999;51.676;22.650;2023-07-13T01:19:41;17.57;92.71
72126;SHT31;59999;51.676;22.650;2023-07-13T01:22:10;17.56;92.75
72126;SHT31;59999;51.676;22.650;2023-07-13T01:24:40;17.50;92.75
72126;SHT31;59999;51.676;22.650;2023-07-13T01:27:07;17.49;92.82
72126;SHT31;59999;51.676;22.650;2023-07-13T01:29:35;17.47;92.91
72126;SHT31;59999;51.676;22.650;2023-07-13T01:32:13;17.45;92.99
72126;SHT31;59999;51.676;22.650;2023-07-13T01:34:40;17.45;93.02
72126;SHT31;59999;51.676;22.650;2023-07-13T01:37:10;17.42;93.18
72126;SHT31;59999;51.676;22.650;2023-07-13T01:39:37;17.39;93.14
72126;SHT31;59999;51.676;22.650;2023-07-13T01:42:03;17.38;93.12
72126;SHT31;59999;51.676;22.650;2023-07-13T01:44:29;17.36;93.10
72126;SHT31;59999;51.676;22.650;2023-07-13T01:46:55;17.34;93.15
72126;SHT31;59999;51.676;22.650;2023-07-13T01:49:22;17.35;93.16
72126;SHT31;59999;51.676;22.650;2023-07-13T01:51:47;17.31;93.15
72126;SHT31;59999;51.676;22.650;2023-07-13T01:54:13;17.31;93.13
72126;SHT31;59999;51.676;22.650;2023-07-13T01:56:39;17.31;93.18
72126;SHT31;59999;51.676;22.650;2023-07-13T01:59:08;17.25;93.16
72126;SHT31;59999;51.676;22.650;2023-07-13T02:01:34;17.25;93.09
72126;SHT31;59999;51.676;22.650;2023-07-13T02:04:00;17.28;93.23
72126;SHT31;59999;51.676;22.650;2023-07-13T02:06:25;17.28;93.40
72126;SHT31;59999;51.676;22.650;2023-07-13T02:08:51;17.29;93.43
72126;SHT31;59999;51.676;22.650;2023-07-13T02:11:17;17.32;93.41
72126;SHT31;59999;51.676;22.650;2023-07-13T02:13:43;17.32;93.43
72126;SHT31;59999;51.676;22.650;2023-07-13T02:16:09;17.34;93.40
72126;SHT31;59999;51.676;22.650;2023-07-13T02:18:35;17.36;93.38
72126;SHT31;59999;51.676;22.650;2023-07-13T02:21:01;17.36;93.25
72126;SHT31;59999;51.676;22.650;2023-07-13T02:23:28;17.34;93.19
72126;SHT31;59999;51.676;22.650;2023-07-13T02:25:56;17.34;93.08
72126;SHT31;59999;51.676;22.650;2023-07-13T02:28:22;17.34;93.04
72126;SHT31;59999;51.676;22.650;2023-07-13T02:30:48;17.32;93.03
72126;SHT31;59999;51.676;22.650;2023-07-13T02:33:14;17.29;92.92
72126;SHT31;59999;51.676;22.650;2023-07-13T02:35:40;17.28;92.92
72126;SHT31;59999;51.676;22.650;2023-07-13T02:38:06;17.28;92.98
72126;SHT31;59999;51.676;22.650;2023-07-13T02:40:32;17.28;92.99
72126;SHT31;59999;51.676;22.650;2023-07-13T02:43:02;17.28;93.04
72126;SHT31;59999;51.676;22.650;2023-07-13T02:45:28;17.26;93.04
72126;SHT31;59999;51.676;22.650;2023-07-13T02:47:54;17.31;93.04
72126;SHT31;59999;51.676;22.650;2023-07-13T02:50:20;17.32;93.05
72126;SHT31;59999;51.676;22.650;2023-07-13T02:52:46;17.31;93.02
72126;SHT31;59999;51.676;22.650;2023-07-13T02:55:12;17.32;92.99
72126;SHT31;59999;51.676;22.650;2023-07-13T02:57:38;17.36;92.98
72126;SHT31;59999;51.676;22.650;2023-07-13T03:00:05;17.38;93.02
72126;SHT31;59999;51.676;22.650;2023-07-13T03:02:32;17.40;93.02
72126;SHT31;59999;51.676;22.650;2023-07-13T03:04:58;17.39;92.98
72126;SHT31;59999;51.676;22.650;2023-07-13T03:07:24;17.39;92.93
72126;SHT31;59999;51.676;22.650;2023-07-13T03:09:57;17.40;92.86
72126;SHT31;59999;51.676;22.650;2023-07-13T03:12:24;17.43;92.80
72126;SHT31;59999;51.676;22.650;2023-07-13T03:14:51;17.49;92.78
72126;SHT31;59999;51.676;22.650;2023-07-13T03:17:17;17.50;92.79
72126;SHT31;59999;51.676;22.650;2023-07-13T03:19:42;17.55;92.80
72126;SHT31;59999;51.676;22.650;2023-07-13T03:22:09;17.56;92.72
72126;SHT31;59999;51.676;22.650;2023-07-13T03:24:35;17.63;92.54
72126;SHT31;59999;51.676;22.650;2023-07-13T03:27:04;17.62;92.38
72126;SHT31;59999;51.676;22.650;2023-07-13T03:29:30;17.63;92.31
72126;SHT31;59999;51.676;22.650;2023-07-13T03:31:56;17.67;92.26
72126;SHT31;59999;51.676;22.650;2023-07-13T03:34:22;17.69;92.21
72126;SHT31;59999;51.676;22.650;2023-07-13T03:36:48;17.76;92.17
72126;SHT31;59999;51.676;22.650;2023-07-13T03:39:14;17.79;92.08
72126;SHT31;59999;51.676;22.650;2023-07-13T03:41:40;17.87;92.11
72126;SHT31;59999;51.676;22.650;2023-07-13T03:44:06;17.94;92.12
72126;SHT31;59999;51.676;22.650;2023-07-13T03:46:32;18.04;92.03
72126;SHT31;59999;51.676;22.650;2023-07-13T03:48:59;18.08;91.77
72126;SHT31;59999;51.676;22.650;2023-07-13T03:51:25;18.17;91.71
72126;SHT31;59999;51.676;22.650;2023-07-13T03:53:51;18.25;91.69
72126;SHT31;59999;51.676;22.650;2023-07-13T03:56:19;18.32;91.66
72126;SHT31;59999;51.676;22.650;2023-07-13T03:58:47;18.40;91.50
72126;SHT31;59999;51.676;22.650;2023-07-13T04:01:14;18.45;91.25
72126;SHT31;59999;51.676;22.650;2023-07-13T04:03:40;18.52;90.92
72126;SHT31;59999;51.676;22.650;2023-07-13T04:06:08;18.53;90.75
72126;SHT31;59999;51.676;22.650;2023-07-13T04:08:40;18.56;90.69
72126;SHT31;59999;51.676;22.650;2023-07-13T04:11:09;18.55;90.53
72126;SHT31;59999;51.676;22.650;2023-07-13T04:13:34;18.58;90.43
72126;SHT31;59999;51.676;22.650;2023-07-13T04:16:00;18.62;90.41
72126;SHT31;59999;51.676;22.650;2023-07-13T04:18:27;18.62;90.35
72126;SHT31;59999;51.676;22.650;2023-07-13T04:20:53;18.72;90.52
72126;SHT31;59999;51.676;22.650;2023-07-13T04:23:19;18.83;90.65
72126;SHT31;59999;51.676;22.650;2023-07-13T04:25:46;18.98;90.29
72126;SHT31;59999;51.676;22.650;2023-07-13T04:28:15;19.11;90.11
72126;SHT31;59999;51.676;22.650;2023-07-13T04:30:41;19.24;89.42
72126;SHT31;59999;51.676;22.650;2023-07-13T04:33:07;19.38;89.12
72126;SHT31;59999;51.676;22.650;2023-07-13T04:35:34;19.51;88.61
72126;SHT31;59999;51.676;22.650;2023-07-13T04:38:01;19.69;87.46
72126;SHT31;59999;51.676;22.650;2023-07-13T04:40:28;19.88;87.31
72126;SHT31;59999;51.676;22.650;2023-07-13T04:42:54;20.06;86.77
72126;SHT31;59999;51.676;22.650;2023-07-13T04:45:22;20.15;86.02
72126;SHT31;59999;51.676;22.650;2023-07-13T04:47:49;20.17;85.25
72126;SHT31;59999;51.676;22.650;2023-07-13T04:50:15;20.20;84.77
72126;SHT31;59999;51.676;22.650;2023-07-13T05:03:11;20.10;85.30
72126;SHT31;59999;51.676;22.650;2023-07-13T05:05:37;20.09;85.52
72126;SHT31;59999;51.676;22.650;2023-07-13T05:08:03;20.15;85.45
72126;SHT31;59999;51.676;22.650;2023-07-13T05:10:29;20.19;85.13
72126;SHT31;59999;51.676;22.650;2023-07-13T05:12:55;20.15;85.29
72126;SHT31;59999;51.676;22.650;2023-07-13T05:15:22;20.10;85.29
72126;SHT31;59999;51.676;22.650;2023-07-13T05:17:49;20.09;85.12
72126;SHT31;59999;51.676;22.650;2023-07-13T05:20:16;20.09;85.37
72126;SHT31;59999;51.676;22.650;2023-07-13T05:22:43;20.16;85.41
72126;SHT31;59999;51.676;22.650;2023-07-13T05:25:09;20.30;85.56
72126;SHT31;59999;51.676;22.650;2023-07-13T05:27:36;20.56;84.88
72126;SHT31;59999;51.676;22.650;2023-07-13T05:30:03;20.75;83.97
72126;SHT31;59999;51.676;22.650;2023-07-13T05:32:29;20.99;83.17
72126;SHT31;59999;51.676;22.650;2023-07-13T05:34:56;21.26;82.44
72126;SHT31;59999;51.676;22.650;2023-07-13T05:37:22;21.42;80.37
72126;SHT31;59999;51.676;22.650;2023-07-13T05:39:48;21.67;80.46
72126;SHT31;59999;51.676;22.650;2023-07-13T05:42:14;21.84;79.27
72126;SHT31;59999;51.676;22.650;2023-07-13T05:44:40;21.94;78.66
72126;SHT31;59999;51.676;22.650;2023-07-13T05:47:06;22.02;78.90
72126;SHT31;59999;51.676;22.650;2023-07-13T05:49:32;22.05;78.18
72126;SHT31;59999;51.676;22.650;2023-07-13T05:51:58;21.98;77.89
72126;SHT31;59999;51.676;22.650;2023-07-13T05:54:24;21.96;78.22
72126;SHT31;59999;51.676;22.650;2023-07-13T05:56:50;21.89;78.02
72126;SHT31;59999;51.676;22.650;2023-07-13T05:59:17;21.90;78.47
72126;SHT31;59999;51.676;22.650;2023-07-13T06:01:43;21.93;78.75
72126;SHT31;59999;51.676;22.650;2023-07-13T06:04:09;21.96;78.22
72126;SHT31;59999;51.676;22.650;2023-07-13T06:06:35;22.00;78.35
72126;SHT31;59999;51.676;22.650;2023-07-13T06:09:01;22.04;78.32
72126;SHT31;59999;51.676;22.650;2023-07-13T06:11:27;22.11;78.35
72126;SHT31;59999;51.676;22.650;2023-07-13T06:13:55;22.17;78.04
72126;SHT31;59999;51.676;22.650;2023-07-13T06:16:22;22.24;77.79
72126;SHT31;59999;51.676;22.650;2023-07-13T06:18:48;22.31;77.78
72126;SHT31;59999;51.676;22.650;2023-07-13T06:21:17;22.39;77.66
72126;SHT31;59999;51.676;22.650;2023-07-13T06:23:44;22.48;77.13
72126;SHT31;59999;51.676;22.650;2023-07-13T06:26:10;22.56;76.75
72126;SHT31;59999;51.676;22.650;2023-07-13T06:28:37;22.65;76.51
72126;SHT31;59999;51.676;22.650;2023-07-13T06:31:06;22.75;75.73
72126;SHT31;59999;51.676;22.650;2023-07-13T06:33:32;22.82;75.48
72126;SHT31;59999;51.676;22.650;2023-07-13T06:35:58;22.95;75.45
72126;SHT31;59999;51.676;22.650;2023-07-13T06:38:24;23.10;74.59
72126;SHT31;59999;51.676;22.650;2023-07-13T06:40:50;23.24;73.49
72126;SHT31;59999;51.676;22.650;2023-07-13T06:43:16;23.27;74.14
72126;SHT31;59999;51.676;22.650;2023-07-13T06:45:45;23.24;73.93
72126;SHT31;59999;51.676;22.650;2023-07-13T06:48:13;23.23;74.22
72126;SHT31;59999;51.676;22.650;2023-07-13T06:50:41;23.28;73.85
72126;SHT31;59999;51.676;22.650;2023-07-13T06:53:08;23.43;73.55
72126;SHT31;59999;51.676;22.650;2023-07-13T06:55:34;23.51;71.93
72126;SHT31;59999;51.676;22.650;2023-07-13T06:58:00;23.59;72.45
72126;SHT31;59999;51.676;22.650;2023-07-13T07:00:26;23.65;71.54
72126;SHT31;59999;51.676;22.650;2023-07-13T07:02:52;23.71;72.37
72126;SHT31;59999;51.676;22.650;2023-07-13T07:05:18;23.62;71.84
72126;SHT31;59999;51.676;22.650;2023-07-13T07:07:49;23.68;72.37
72126;SHT31;59999;51.676;22.650;2023-07-13T07:10:15;23.75;71.34
72126;SHT31;59999;51.676;22.650;2023-07-13T07:12:41;23.79;71.53
72126;SHT31;59999;51.676;22.650;2023-07-13T07:15:07;23.88;71.55
72126;SHT31;59999;51.676;22.650;2023-07-13T07:17:33;23.96;71.18
72126;SHT31;59999;51.676;22.650;2023-07-13T07:19:59;24.01;69.79
72126;SHT31;59999;51.676;22.650;2023-07-13T07:22:25;24.03;70.16
72126;SHT31;59999;51.676;22.650;2023-07-13T07:24:53;24.08;69.97
72126;SHT31;59999;51.676;22.650;2023-07-13T07:27:20;24.09;70.02
72126;SHT31;59999;51.676;22.650;2023-07-13T07:29:46;24.14;70.01
72126;SHT31;59999;51.676;22.650;2023-07-13T07:32:12;24.20;69.42
72126;SHT31;59999;51.676;22.650;2023-07-13T07:34:37;24.24;69.30
72126;SHT31;59999;51.676;22.650;2023-07-13T07:37:04;24.29;69.44
72126;SHT31;59999;51.676;22.650;2023-07-13T07:39:30;24.29;69.34
72126;SHT31;59999;51.676;22.650;2023-07-13T07:41:56;24.27;68.48
72126;SHT31;59999;51.676;22.650;2023-07-13T07:44:22;24.29;69.03
72126;SHT31;59999;51.676;22.650;2023-07-13T07:46:49;24.23;68.10
72126;SHT31;59999;51.676;22.650;2023-07-13T07:49:15;24.17;68.91
72126;SHT31;59999;51.676;22.650;2023-07-13T07:51:41;24.17;69.11
72126;SHT31;59999;51.676;22.650;2023-07-13T07:54:07;24.14;69.25
72126;SHT31;59999;51.676;22.650;2023-07-13T07:56:33;24.12;69.48
72126;SHT31;59999;51.676;22.650;2023-07-13T07:58:59;24.06;69.16
72126;SHT31;59999;51.676;22.650;2023-07-13T08:01:25;24.08;70.15
72126;SHT31;59999;51.676;22.650;2023-07-13T08:03:50;24.10;68.97
72126;SHT31;59999;51.676;22.650;2023-07-13T08:06:17;24.17;68.93
72126;SHT31;59999;51.676;22.650;2023-07-13T08:08:45;24.20;68.91
72126;SHT31;59999;51.676;22.650;2023-07-13T08:11:11;24.24;69.00
72126;SHT31;59999;51.676;22.650;2023-07-13T08:13:38;24.24;68.71
72126;SHT31;59999;51.676;22.650;2023-07-13T08:16:05;24.26;68.80
72126;SHT31;59999;51.676;22.650;2023-07-13T08:18:31;24.27;68.53
72126;SHT31;59999;51.676;22.650;2023-07-13T08:20:57;24.39;67.98
72126;SHT31;59999;51.676;22.650;2023-07-13T08:23:25;24.49;67.26
72126;SHT31;59999;51.676;22.650;2023-07-13T08:25:52;24.60;66.53
72126;SHT31;59999;51.676;22.650;2023-07-13T08:28:19;24.63;66.06
72126;SHT31;59999;51.676;22.650;2023-07-13T08:30:46;24.63;66.52
72126;SHT31;59999;51.676;22.650;2023-07-13T08:33:18;24.61;66.46
72126;SHT31;59999;51.676;22.650;2023-07-13T08:35:48;24.60;65.66
72126;SHT31;59999;51.676;22.650;2023-07-13T08:38:15;24.59;65.79
72126;SHT31;59999;51.676;22.650;2023-07-13T08:40:42;24.60;66.16
72126;SHT31;59999;51.676;22.650;2023-07-13T08:43:16;24.60;67.11
72126;SHT31;59999;51.676;22.650;2023-07-13T08:45:52;24.63;66.77
72126;SHT31;59999;51.676;22.650;2023-07-13T08:48:31;24.67;66.26
72126;SHT31;59999;51.676;22.650;2023-07-13T08:51:02;24.75;65.42
72126;SHT31;59999;51.676;22.650;2023-07-13T08:53:37;24.87;66.31
72126;SHT31;59999;51.676;22.650;2023-07-13T08:56:15;24.95;64.89
72126;SHT31;59999;51.676;22.650;2023-07-13T08:58:42;25.07;65.93
72126;SHT31;59999;51.676;22.650;2023-07-13T09:01:18;25.11;65.22
72126;SHT31;59999;51.676;22.650;2023-07-13T09:03:59;25.18;63.87
72126;SHT31;59999;51.676;22.650;2023-07-13T09:06:31;25.30;64.61
72126;SHT31;59999;51.676;22.650;2023-07-13T09:09:06;25.36;61.62
72126;SHT31;59999;51.676;22.650;2023-07-13T09:11:55;25.38;59.80
72126;SHT31;59999;51.676;22.650;2023-07-13T09:14:41;25.29;60.78
72126;SHT31;59999;51.676;22.650;2023-07-13T09:17:14;25.28;61.78
72126;SHT31;59999;51.676;22.650;2023-07-13T09:19:42;25.33;60.80
72126;SHT31;59999;51.676;22.650;2023-07-13T09:22:18;25.36;60.62
72126;SHT31;59999;51.676;22.650;2023-07-13T09:27:35;25.39;60.52
72126;SHT31;59999;51.676;22.650;2023-07-13T09:32:44;25.43;59.73
72126;SHT31;59999;51.676;22.650;2023-07-13T09:35:18;25.46;60.60
72126;SHT31;59999;51.676;22.650;2023-07-13T09:37:45;25.43;60.60
72126;SHT31;59999;51.676;22.650;2023-07-13T09:40:25;25.46;61.15
72126;SHT31;59999;51.676;22.650;2023-07-13T09:42:54;25.42;60.22
72126;SHT31;59999;51.676;22.650;2023-07-13T09:45:29;25.33;61.21
72126;SHT31;59999;51.676;22.650;2023-07-13T09:48:02;25.29;62.54
72126;SHT31;59999;51.676;22.650;2023-07-13T09:50:29;25.20;61.79
72126;SHT31;59999;51.676;22.650;2023-07-13T09:52:55;25.14;61.30
72126;SHT31;59999;51.676;22.650;2023-07-13T09:57:52;25.01;62.10
72126;SHT31;59999;51.676;22.650;2023-07-13T10:00:24;24.96;62.57
72126;SHT31;59999;51.676;22.650;2023-07-13T10:03:04;24.89;62.07
72126;SHT31;59999;51.676;22.650;2023-07-13T10:05:41;24.85;61.98
72126;SHT31;59999;51.676;22.650;2023-07-13T10:08:18;24.85;61.68
72126;SHT31;59999;51.676;22.650;2023-07-13T10:10:46;24.87;62.15
72126;SHT31;59999;51.676;22.650;2023-07-13T10:15:56;24.84;61.28
72126;SHT31;59999;51.676;22.650;2023-07-13T10:18:24;24.84;61.55
72126;SHT31;59999;51.676;22.650;2023-07-13T10:20:58;24.89;62.01
72126;SHT31;59999;51.676;22.650;2023-07-13T10:23:31;24.96;62.63
72126;SHT31;59999;51.676;22.650;2023-07-13T10:25:59;25.11;62.53
72126;SHT31;59999;51.676;22.650;2023-07-13T10:28:36;25.25;63.10
72126;SHT31;59999;51.676;22.650;2023-07-13T10:31:06;25.36;63.07
72126;SHT31;59999;51.676;22.650;2023-07-13T10:33:36;25.42;61.99
72126;SHT31;59999;51.676;22.650;2023-07-13T10:38:35;25.35;60.94
72126;SHT31;59999;51.676;22.650;2023-07-13T10:41:04;25.28;60.70
72126;SHT31;59999;51.676;22.650;2023-07-13T10:43:35;25.25;61.20
72126;SHT31;59999;51.676;22.650;2023-07-13T10:46:11;25.30;61.83
72126;SHT31;59999;51.676;22.650;2023-07-13T10:48:39;25.39;61.68
72126;SHT31;59999;51.676;22.650;2023-07-13T10:51:06;25.50;61.85
72126;SHT31;59999;51.676;22.650;2023-07-13T10:53:34;25.56;61.34
72126;SHT31;59999;51.676;22.650;2023-07-13T10:56:01;25.59;60.03
72126;SHT31;59999;51.676;22.650;2023-07-13T10:58:39;25.66;60.33
72126;SHT31;59999;51.676;22.650;2023-07-13T11:11:37;25.57;61.52
72126;SHT31;59999;51.676;22.650;2023-07-13T11:14:27;25.63;61.23
72126;SHT31;59999;51.676;22.650;2023-07-13T11:16:53;25.65;61.39
72126;SHT31;59999;51.676;22.650;2023-07-13T11:24:56;25.59;62.45
72126;SHT31;59999;51.676;22.650;2023-07-13T11:27:37;25.71;62.23
72126;SHT31;59999;51.676;22.650;2023-07-13T11:32:41;25.83;62.33
72126;SHT31;59999;51.676;22.650;2023-07-13T11:35:14;25.84;62.32
72126;SHT31;59999;51.676;22.650;2023-07-13T11:37:41;25.87;61.86
72126;SHT31;59999;51.676;22.650;2023-07-13T11:40:15;25.86;61.46
72126;SHT31;59999;51.676;22.650;2023-07-13T11:42:41;25.86;61.29
72126;SHT31;59999;51.676;22.650;2023-07-13T11:45:21;25.90;61.38
72126;SHT31;59999;51.676;22.650;2023-07-13T11:47:49;25.96;61.15
72126;SHT31;59999;51.676;22.650;2023-07-13T11:50:20;26.02;61.20
72126;SHT31;59999;51.676;22.650;2023-07-13T11:52:48;26.05;60.66
72126;SHT31;59999;51.676;22.650;2023-07-13T11:55:20;26.00;60.44
72126;SHT31;59999;51.676;22.650;2023-07-13T11:58:00;26.01;59.21
72126;SHT31;59999;51.676;22.650;2023-07-13T12:00:31;26.00;60.05
72126;SHT31;59999;51.676;22.650;2023-07-13T12:03:00;26.02;60.48
72126;SHT31;59999;51.676;22.650;2023-07-13T12:05:28;26.14;61.05
72126;SHT31;59999;51.676;22.650;2023-07-13T12:07:55;26.24;60.00
72126;SHT31;59999;51.676;22.650;2023-07-13T12:10:28;26.25;60.17
72126;SHT31;59999;51.676;22.650;2023-07-13T12:12:56;26.24;60.48
72126;SHT31;59999;51.676;22.650;2023-07-13T12:15:38;26.29;60.39
72126;SHT31;59999;51.676;22.650;2023-07-13T12:18:18;26.29;60.63
72126;SHT31;59999;51.676;22.650;2023-07-13T12:20:44;26.28;60.21
72126;SHT31;59999;51.676;22.650;2023-07-13T12:25:46;26.42;58.84
72126;SHT31;59999;51.676;22.650;2023-07-13T12:28:36;26.55;58.76
72126;SHT31;59999;51.676;22.650;2023-07-13T12:31:07;26.62;58.95
72126;SHT31;59999;51.676;22.650;2023-07-13T12:33:34;26.62;59.12
72126;SHT31;59999;51.676;22.650;2023-07-13T12:36:05;26.62;58.73
72126;SHT31;59999;51.676;22.650;2023-07-13T12:38:32;26.59;59.29
72126;SHT31;59999;51.676;22.650;2023-07-13T12:40:58;26.51;59.36
72126;SHT31;59999;51.676;22.650;2023-07-13T12:43:28;26.48;59.27
72126;SHT31;59999;51.676;22.650;2023-07-13T12:46:02;26.56;59.96
72126;SHT31;59999;51.676;22.650;2023-07-13T12:48:29;26.56;60.77
72126;SHT31;59999;51.676;22.650;2023-07-13T12:50:56;26.52;61.58
72126;SHT31;59999;51.676;22.650;2023-07-13T12:53:30;26.44;61.96
72126;SHT31;59999;51.676;22.650;2023-07-13T12:55:59;26.31;62.16
72126;SHT31;59999;51.676;22.650;2023-07-13T12:58:41;26.29;61.63
72126;SHT31;59999;51.676;22.650;2023-07-13T13:01:10;26.31;62.20
72126;SHT31;59999;51.676;22.650;2023-07-13T13:03:42;26.28;62.08
72126;SHT31;59999;51.676;22.650;2023-07-13T13:08:49;26.32;62.67
72126;SHT31;59999;51.676;22.650;2023-07-13T13:11:16;26.34;62.77
72126;SHT31;59999;51.676;22.650;2023-07-13T13:13:43;26.26;63.41
72126;SHT31;59999;51.676;22.650;2023-07-13T13:16:30;26.14;63.64
72126;SHT31;59999;51.676;22.650;2023-07-13T13:19:24;25.94;63.35
72126;SHT31;59999;51.676;22.650;2023-07-13T13:21:50;25.84;63.79
72126;SHT31;59999;51.676;22.650;2023-07-13T13:24:21;25.73;64.14
72126;SHT31;59999;51.676;22.650;2023-07-13T13:26:48;25.71;64.73
72126;SHT31;59999;51.676;22.650;2023-07-13T13:29:17;25.70;64.36
72126;SHT31;59999;51.676;22.650;2023-07-13T13:31:44;25.77;63.62
72126;SHT31;59999;51.676;22.650;2023-07-13T13:34:12;25.81;64.32
72126;SHT31;59999;51.676;22.650;2023-07-13T13:36:40;25.86;64.73
72126;SHT31;59999;51.676;22.650;2023-07-13T13:39:21;25.84;63.09
72126;SHT31;59999;51.676;22.650;2023-07-13T13:41:49;25.90;63.33
72126;SHT31;59999;51.676;22.650;2023-07-13T13:44:16;25.93;63.41
72126;SHT31;59999;51.676;22.650;2023-07-13T13:46:45;25.97;63.74
72126;SHT31;59999;51.676;22.650;2023-07-13T13:49:17;25.98;63.35
72126;SHT31;59999;51.676;22.650;2023-07-13T13:51:44;26.00;63.69
72126;SHT31;59999;51.676;22.650;2023-07-13T13:54:12;25.94;63.78
72126;SHT31;59999;51.676;22.650;2023-07-13T13:56:44;25.88;64.23
72126;SHT31;59999;51.676;22.650;2023-07-13T13:59:12;25.71;64.41
72126;SHT31;59999;51.676;22.650;2023-07-13T14:01:38;25.56;64.90
72126;SHT31;59999;51.676;22.650;2023-07-13T14:04:06;25.43;65.38
72126;SHT31;59999;51.676;22.650;2023-07-13T14:06:33;25.20;63.71
72126;SHT31;59999;51.676;22.650;2023-07-13T14:09:00;24.67;63.57
72126;SHT31;59999;51.676;22.650;2023-07-13T14:11:26;24.23;64.56
72126;SHT31;59999;51.676;22.650;2023-07-13T14:13:55;23.76;65.26
72126;SHT31;59999;51.676;22.650;2023-07-13T14:16:23;23.45;65.93
72126;SHT31;59999;51.676;22.650;2023-07-13T14:18:53;23.16;66.40
72126;SHT31;59999;51.676;22.650;2023-07-13T14:21:21;22.90;66.49
72126;SHT31;59999;51.676;22.650;2023-07-13T14:23:48;22.70;67.02
72126;SHT31;59999;51.676;22.650;2023-07-13T14:26:17;22.52;67.50
72126;SHT31;59999;51.676;22.650;2023-07-13T14:28:47;22.38;68.31
72126;SHT31;59999;51.676;22.650;2023-07-13T14:31:15;22.24;68.64
72126;SHT31;59999;51.676;22.650;2023-07-13T14:33:41;22.14;68.56
72126;SHT31;59999;51.676;22.650;2023-07-13T14:36:28;21.97;68.62
72126;SHT31;59999;51.676;22.650;2023-07-13T14:39:05;21.73;68.62
72126;SHT31;59999;51.676;22.650;2023-07-13T14:41:34;21.59;68.65
72126;SHT31;59999;51.676;22.650;2023-07-13T14:44:01;21.49;69.22
72126;SHT31;59999;51.676;22.650;2023-07-13T14:46:32;21.41;69.45
72126;SHT31;59999;51.676;22.650;2023-07-13T14:49:13;21.39;69.54
72126;SHT31;59999;51.676;22.650;2023-07-13T14:51:40;21.28;68.72
72126;SHT31;59999;51.676;22.650;2023-07-13T14:54:08;21.21;68.86
72126;SHT31;59999;51.676;22.650;2023-07-13T14:56:35;21.19;69.25
72126;SHT31;59999;51.676;22.650;2023-07-13T14:59:01;21.15;69.53
72126;SHT31;59999;51.676;22.650;2023-07-13T15:01:27;21.06;69.34
72126;SHT31;59999;51.676;22.650;2023-07-13T15:03:54;21.04;69.42
72126;SHT31;59999;51.676;22.650;2023-07-13T15:06:20;20.94;68.79
72126;SHT31;59999;51.676;22.650;2023-07-13T15:08:46;20.84;68.49
72126;SHT31;59999;51.676;22.650;2023-07-13T15:11:12;20.70;68.75
72126;SHT31;59999;51.676;22.650;2023-07-13T15:13:39;20.60;69.84
72126;SHT31;59999;51.676;22.650;2023-07-13T15:16:25;20.46;70.51
72126;SHT31;59999;51.676;22.650;2023-07-13T15:18:52;20.30;71.42
72126;SHT31;59999;51.676;22.650;2023-07-13T15:21:23;20.12;72.72
72126;SHT31;59999;51.676;22.650;2023-07-13T15:23:51;19.99;73.98
72126;SHT31;59999;51.676;22.650;2023-07-13T15:26:18;19.82;74.80
72126;SHT31;59999;51.676;22.650;2023-07-13T15:28:45;19.62;76.07
72126;SHT31;59999;51.676;22.650;2023-07-13T15:31:20;19.46;76.85
72126;SHT31;59999;51.676;22.650;2023-07-13T15:33:47;19.32;78.11
72126;SHT31;59999;51.676;22.650;2023-07-13T15:36:20;19.14;79.68
72126;SHT31;59999;51.676;22.650;2023-07-13T15:38:48;18.99;80.47
72126;SHT31;59999;51.676;22.650;2023-07-13T15:41:19;18.85;81.63
72126;SHT31;59999;51.676;22.650;2023-07-13T15:43:47;18.69;82.72
72126;SHT31;59999;51.676;22.650;2023-07-13T15:46:13;18.59;83.39
72126;SHT31;59999;51.676;22.650;2023-07-13T15:48:40;18.49;83.92
72126;SHT31;59999;51.676;22.650;2023-07-13T15:51:13;18.44;84.11
72126;SHT31;59999;51.676;22.650;2023-07-13T15:53:40;18.38;84.71
72126;SHT31;59999;51.676;22.650;2023-07-13T15:56:19;18.31;85.02
72126;SHT31;59999;51.676;22.650;2023-07-13T15:58:46;18.30;85.59
72126;SHT31;59999;51.676;22.650;2023-07-13T16:01:12;18.25;85.87
72126;SHT31;59999;51.676;22.650;2023-07-13T16:03:39;18.20;85.99
72126;SHT31;59999;51.676;22.650;2023-07-13T16:06:21;18.18;86.16
72126;SHT31;59999;51.676;22.650;2023-07-13T16:08:49;18.14;86.34
72126;SHT31;59999;51.676;22.650;2023-07-13T16:11:22;18.11;86.45
72126;SHT31;59999;51.676;22.650;2023-07-13T16:13:49;18.11;86.96